sensor_id;sensor_type;location;lat;lon;timestamp;P1;durP1;ratioP1;P2;durP2;ratioP2
21315;SDS011;10817;55.820;13.030;2023-08-20T00:01:00;17.80;;;8.38;;
21315;SDS011;10817;55.820;13.030;2023-08-20T00:03:31;13.52;;;8.70;;
21315;SDS011;10817;55.820;13.030;2023-08-20T00:05:58;34.15;;;11.48;;
21315;SDS011;10817;55.820;13.030;2023-08-20T00:08:25;14.63;;;9.25;;
21315;SDS011;10817;55.820;13.030;2023-08-20T00:10:53;16.27;;;9.93;;
21315;SDS011;10817;55.820;13.030;2023-08-20T00:13:20;18.00;;;10.40;;
21315;SDS011;10817;55.820;13.030;2023-08-20T00:15:48;16.77;;;9.93;;
21315;SDS011;10817;55.820;13.030;2023-08-20T00:18:15;21.17;;;10.80;;
21315;SDS011;10817;55.820;13.030;2023-08-20T00:20:45;22.83;;;10.95;;
21315;SDS011;10817;55.820;13.030;2023-08-20T00:23:12;24.42;;;10.68;;
21315;SDS011;10817;55.820;13.030;2023-08-20T00:25:40;19.02;;;10.82;;
21315;SDS011;10817;55.820;13.030;2023-08-20T00:28:07;27.67;;;12.45;;
21315;SDS011;10817;55.820;13.030;2023-08-20T00:30:34;22.10;;;12.68;;
21315;SDS011;10817;55.820;13.030;2023-08-20T00:33:01;20.50;;;11.23;;
21315;SDS011;10817;55.820;13.030;2023-08-20T00:35:28;19.52;;;12.07;;
21315;SDS011;10817;55.820;13.030;2023-08-20T00:37:57;19.65;;;12.23;;
21315;SDS011;10817;55.820;13.030;2023-08-20T00:40:26;18.13;;;11.57;;
21315;SDS011;10817;55.820;13.030;2023-08-20T00:42:53;24.85;;;12.27;;
21315;SDS011;10817;55.820;13.030;2023-08-20T00:45:21;22.23;;;12.05;;
21315;SDS011;10817;55.820;13.030;2023-08-20T00:47:49;16.80;;;10.85;;
21315;SDS011;10817;55.820;13.030;2023-08-20T00:50:16;22.10;;;11.95;;
21315;SDS011;10817;55.820;13.030;2023-08-20T00:52:44;19.52;;;11.85;;
21315;SDS011;10817;55.820;13.030;2023-08-20T00:55:13;18.70;;;11.63;;
21315;SDS011;10817;55.820;13.030;2023-08-20T00:57:41;19.83;;;11.82;;
21315;SDS011;10817;55.820;13.030;2023-08-20T01:00:09;21.65;;;11.40;;
21315;SDS011;10817;55.820;13.030;2023-08-20T01:02:36;28.63;;;13.88;;
21315;SDS011;10817;55.820;13.030;2023-08-20T01:05:05;20.00;;;10.95;;
21315;SDS011;10817;55.820;13.030;2023-08-20T01:07:36;15.20;;;10.27;;
21315;SDS011;10817;55.820;13.030;2023-08-20T01:10:08;14.10;;;9.80;;
21315;SDS011;10817;55.820;13.030;2023-08-20T01:12:37;16.38;;;9.45;;
21315;SDS011;10817;55.820;13.030;2023-08-20T01:15:06;12.13;;;8.90;;
21315;SDS011;10817;55.820;13.030;2023-08-20T01:17:38;12.80;;;8.75;;
21315;SDS011;10817;55.820;13.030;2023-08-20T01:20:06;14.98;;;9.35;;
21315;SDS011;10817;55.820;13.030;2023-08-20T01:22:50;13.07;;;9.02;;
21315;SDS011;10817;55.820;13.030;2023-08-20T01:25:24;13.68;;;8.45;;
21315;SDS011;10817;55.820;13.030;2023-08-20T01:27:57;11.05;;;8.25;;
21315;SDS011;10817;55.820;13.030;2023-08-20T01:30:27;11.90;;;8.55;;
21315;SDS011;10817;55.820;13.030;2023-08-20T01:32:55;11.30;;;7.40;;
21315;SDS011;10817;55.820;13.030;2023-08-20T01:35:23;9.48;;;7.63;;
21315;SDS011;10817;55.820;13.030;2023-08-20T01:38:01;11.65;;;8.10;;
21315;SDS011;10817;55.820;13.030;2023-08-20T01:40:28;13.75;;;8.35;;
21315;SDS011;10817;55.820;13.030;2023-08-20T01:42:56;10.50;;;8.05;;
21315;SDS011;10817;55.820;13.030;2023-08-20T01:45:23;11.23;;;8.18;;
21315;SDS011;10817;55.820;13.030;2023-08-20T01:47:52;12.00;;;7.72;;
21315;SDS011;10817;55.820;13.030;2023-08-20T01:50:19;11.43;;;8.63;;
21315;SDS011;10817;55.820;13.030;2023-08-20T01:52:47;14.85;;;8.80;;
21315;SDS011;10817;55.820;13.030;2023-08-20T01:55:14;10.25;;;8.25;;
21315;SDS011;10817;55.820;13.030;2023-08-20T01:57:41;9.60;;;7.78;;
21315;SDS011;10817;55.820;13.030;2023-08-20T02:00:09;11.73;;;8.40;;
21315;SDS011;10817;55.820;13.030;2023-08-20T02:02:39;12.57;;;8.50;;
21315;SDS011;10817;55.820;13.030;2023-08-20T02:05:08;12.25;;;8.82;;
21315;SDS011;10817;55.820;13.030;2023-08-20T02:07:37;12.20;;;8.18;;
21315;SDS011;10817;55.820;13.030;2023-08-20T02:10:05;11.07;;;7.57;;
21315;SDS011;10817;55.820;13.030;2023-08-20T02:12:32;13.10;;;8.25;;
21315;SDS011;10817;55.820;13.030;2023-08-20T02:14:59;10.15;;;7.90;;
21315;SDS011;10817;55.820;13.030;2023-08-20T02:17:27;12.73;;;7.63;;
21315;SDS011;10817;55.820;13.030;2023-08-20T02:19:54;13.38;;;6.85;;
21315;SDS011;10817;55.820;13.030;2023-08-20T02:22:23;10.23;;;7.40;;
21315;SDS011;10817;55.820;13.030;2023-08-20T02:24:50;9.07;;;6.90;;
21315;SDS011;10817;55.820;13.030;2023-08-20T02:27:17;8.63;;;6.80;;
21315;SDS011;10817;55.820;13.030;2023-08-20T02:29:44;9.73;;;6.35;;
21315;SDS011;10817;55.820;13.030;2023-08-20T02:32:14;9.13;;;6.93;;
21315;SDS011;10817;55.820;13.030;2023-08-20T02:34:41;8.65;;;6.75;;
21315;SDS011;10817;55.820;13.030;2023-08-20T02:37:08;10.07;;;6.50;;
21315;SDS011;10817;55.820;13.030;2023-08-20T02:39:37;9.48;;;7.00;;
21315;SDS011;10817;55.820;13.030;2023-08-20T02:42:04;9.85;;;6.75;;
21315;SDS011;10817;55.820;13.030;2023-08-20T02:44:31;7.63;;;6.30;;
21315;SDS011;10817;55.820;13.030;2023-08-20T02:46:58;9.90;;;6.47;;
21315;SDS011;10817;55.820;13.030;2023-08-20T02:49:25;11.35;;;6.57;;
21315;SDS011;10817;55.820;13.030;2023-08-20T02:51:53;8.52;;;6.53;;
21315;SDS011;10817;55.820;13.030;2023-08-20T02:54:20;8.60;;;6.82;;
21315;SDS011;10817;55.820;13.030;2023-08-20T02:56:48;9.23;;;6.65;;
21315;SDS011;10817;55.820;13.030;2023-08-20T02:59:16;7.72;;;6.53;;
21315;SDS011;10817;55.820;13.030;2023-08-20T03:01:43;9.35;;;7.43;;
21315;SDS011;10817;55.820;13.030;2023-08-20T03:04:11;9.48;;;6.43;;
21315;SDS011;10817;55.820;13.030;2023-08-20T03:06:38;7.72;;;6.30;;
21315;SDS011;10817;55.820;13.030;2023-08-20T03:09:05;7.82;;;6.15;;
21315;SDS011;10817;55.820;13.030;2023-08-20T03:11:32;9.20;;;6.22;;
21315;SDS011;10817;55.820;13.030;2023-08-20T03:14:01;6.72;;;5.45;;
21315;SDS011;10817;55.820;13.030;2023-08-20T03:16:28;8.48;;;5.78;;
21315;SDS011;10817;55.820;13.030;2023-08-20T03:18:55;5.85;;;5.13;;
21315;SDS011;10817;55.820;13.030;2023-08-20T03:21:23;5.60;;;4.65;;
21315;SDS011;10817;55.820;13.030;2023-08-20T03:23:50;7.75;;;5.35;;
21315;SDS011;10817;55.820;13.030;2023-08-20T03:26:17;5.60;;;4.68;;
21315;SDS011;10817;55.820;13.030;2023-08-20T03:28:45;5.18;;;4.63;;
21315;SDS011;10817;55.820;13.030;2023-08-20T03:31:13;6.10;;;5.07;;
21315;SDS011;10817;55.820;13.030;2023-08-20T03:33:42;5.00;;;4.30;;
21315;SDS011;10817;55.820;13.030;2023-08-20T03:36:09;6.45;;;4.53;;
21315;SDS011;10817;55.820;13.030;2023-08-20T03:38:36;5.60;;;4.60;;
21315;SDS011;10817;55.820;13.030;2023-08-20T03:41:04;4.60;;;4.15;;
21315;SDS011;10817;55.820;13.030;2023-08-20T03:43:31;5.20;;;4.50;;
21315;SDS011;10817;55.820;13.030;2023-08-20T03:45:58;5.60;;;4.75;;
21315;SDS011;10817;55.820;13.030;2023-08-20T03:48:27;7.05;;;4.65;;
21315;SDS011;10817;55.820;13.030;2023-08-20T03:50:54;5.35;;;4.57;;
21315;SDS011;10817;55.820;13.030;2023-08-20T03:53:21;5.18;;;4.68;;
21315;SDS011;10817;55.820;13.030;2023-08-20T03:55:48;5.97;;;4.47;;
21315;SDS011;10817;55.820;13.030;2023-08-20T03:58:16;5.22;;;4.70;;
21315;SDS011;10817;55.820;13.030;2023-08-20T04:00:43;6.05;;;4.82;;
21315;SDS011;10817;55.820;13.030;2023-08-20T04:03:11;6.63;;;4.78;;
21315;SDS011;10817;55.820;13.030;2023-08-20T04:05:40;8.05;;;4.80;;
21315;SDS011;10817;55.820;13.030;2023-08-20T04:08:07;6.18;;;4.50;;
21315;SDS011;10817;55.820;13.030;2023-08-20T04:10:35;6.00;;;5.40;;
21315;SDS011;10817;55.820;13.030;2023-08-20T04:13:05;7.43;;;5.40;;
21315;SDS011;10817;55.820;13.030;2023-08-20T04:15:33;7.90;;;5.18;;
21315;SDS011;10817;55.820;13.030;2023-08-20T04:18:00;6.43;;;5.40;;
21315;SDS011;10817;55.820;13.030;2023-08-20T04:20:29;8.90;;;6.63;;
21315;SDS011;10817;55.820;13.030;2023-08-20T04:22:58;9.52;;;6.35;;
21315;SDS011;10817;55.820;13.030;2023-08-20T04:25:26;11.70;;;6.40;;
21315;SDS011;10817;55.820;13.030;2023-08-20T04:27:54;8.57;;;7.47;;
21315;SDS011;10817;55.820;13.030;2023-08-20T04:30:21;7.80;;;6.55;;
21315;SDS011;10817;55.820;13.030;2023-08-20T04:32:48;9.75;;;8.05;;
21315;SDS011;10817;55.820;13.030;2023-08-20T04:35:16;8.30;;;6.70;;
21315;SDS011;10817;55.820;13.030;2023-08-20T04:37:43;11.52;;;7.18;;
21315;SDS011;10817;55.820;13.030;2023-08-20T04:40:12;8.73;;;7.28;;
21315;SDS011;10817;55.820;13.030;2023-08-20T04:42:39;9.48;;;6.72;;
21315;SDS011;10817;55.820;13.030;2023-08-20T04:45:07;9.85;;;6.78;;
21315;SDS011;10817;55.820;13.030;2023-08-20T04:47:36;9.63;;;7.15;;
21315;SDS011;10817;55.820;13.030;2023-08-20T04:50:04;6.75;;;5.88;;
21315;SDS011;10817;55.820;13.030;2023-08-20T04:52:32;8.20;;;6.80;;
21315;SDS011;10817;55.820;13.030;2023-08-20T04:54:59;7.93;;;6.68;;
21315;SDS011;10817;55.820;13.030;2023-08-20T04:57:28;8.68;;;7.00;;
21315;SDS011;10817;55.820;13.030;2023-08-20T04:59:56;11.18;;;6.65;;
21315;SDS011;10817;55.820;13.030;2023-08-20T05:02:43;6.55;;;5.85;;
21315;SDS011;10817;55.820;13.030;2023-08-20T05:05:14;7.70;;;6.15;;
21315;SDS011;10817;55.820;13.030;2023-08-20T05:07:41;7.35;;;5.50;;
21315;SDS011;10817;55.820;13.030;2023-08-20T05:10:08;7.32;;;5.43;;
21315;SDS011;10817;55.820;13.030;2023-08-20T05:12:37;10.68;;;5.47;;
21315;SDS011;10817;55.820;13.030;2023-08-20T05:15:04;6.07;;;5.47;;
21315;SDS011;10817;55.820;13.030;2023-08-20T05:17:32;11.13;;;5.70;;
21315;SDS011;10817;55.820;13.030;2023-08-20T05:20:00;6.53;;;5.15;;
21315;SDS011;10817;55.820;13.030;2023-08-20T05:22:29;6.93;;;5.72;;
21315;SDS011;10817;55.820;13.030;2023-08-20T05:24:56;6.55;;;5.30;;
21315;SDS011;10817;55.820;13.030;2023-08-20T05:27:23;7.63;;;6.25;;
21315;SDS011;10817;55.820;13.030;2023-08-20T05:29:52;8.15;;;6.13;;
21315;SDS011;10817;55.820;13.030;2023-08-20T05:32:19;9.23;;;6.40;;
21315;SDS011;10817;55.820;13.030;2023-08-20T05:34:47;8.95;;;6.50;;
21315;SDS011;10817;55.820;13.030;2023-08-20T05:37:14;7.10;;;6.05;;
21315;SDS011;10817;55.820;13.030;2023-08-20T05:39:41;7.07;;;6.07;;
21315;SDS011;10817;55.820;13.030;2023-08-20T05:42:09;8.82;;;6.45;;
21315;SDS011;10817;55.820;13.030;2023-08-20T05:44:38;6.95;;;6.03;;
21315;SDS011;10817;55.820;13.030;2023-08-20T05:47:12;6.63;;;5.88;;
21315;SDS011;10817;55.820;13.030;2023-08-20T05:49:39;8.00;;;6.53;;
21315;SDS011;10817;55.820;13.030;2023-08-20T05:52:06;7.22;;;6.53;;
21315;SDS011;10817;55.820;13.030;2023-08-20T05:54:34;6.07;;;5.20;;
21315;SDS011;10817;55.820;13.030;2023-08-20T05:57:01;5.95;;;4.82;;
21315;SDS011;10817;55.820;13.030;2023-08-20T05:59:29;6.03;;;4.85;;
21315;SDS011;10817;55.820;13.030;2023-08-20T06:01:56;6.30;;;4.63;;
21315;SDS011;10817;55.820;13.030;2023-08-20T06:04:24;5.30;;;4.80;;
21315;SDS011;10817;55.820;13.030;2023-08-20T06:06:52;6.75;;;4.75;;
21315;SDS011;10817;55.820;13.030;2023-08-20T06:09:19;7.18;;;4.70;;
21315;SDS011;10817;55.820;13.030;2023-08-20T06:11:46;6.13;;;4.80;;
21315;SDS011;10817;55.820;13.030;2023-08-20T06:14:14;5.07;;;4.55;;
21315;SDS011;10817;55.820;13.030;2023-08-20T06:16:41;5.35;;;4.22;;
21315;SDS011;10817;55.820;13.030;2023-08-20T06:19:09;5.75;;;5.15;;
21315;SDS011;10817;55.820;13.030;2023-08-20T06:21:37;7.38;;;5.30;;
21315;SDS011;10817;55.820;13.030;2023-08-20T06:24:05;7.45;;;5.28;;
21315;SDS011;10817;55.820;13.030;2023-08-20T06:26:32;7.72;;;5.43;;
21315;SDS011;10817;55.820;13.030;2023-08-20T06:28:59;8.43;;;4.75;;
21315;SDS011;10817;55.820;13.030;2023-08-20T06:31:27;7.25;;;5.57;;
21315;SDS011;10817;55.820;13.030;2023-08-20T06:33:54;6.07;;;4.88;;
21315;SDS011;10817;55.820;13.030;2023-08-20T06:36:21;5.80;;;4.90;;
21315;SDS011;10817;55.820;13.030;2023-08-20T06:38:50;4.65;;;4.25;;
21315;SDS011;10817;55.820;13.030;2023-08-20T06:41:17;7.43;;;4.40;;
21315;SDS011;10817;55.820;13.030;2023-08-20T06:43:44;7.30;;;5.07;;
21315;SDS011;10817;55.820;13.030;2023-08-20T06:46:11;7.15;;;5.35;;
21315;SDS011;10817;55.820;13.030;2023-08-20T06:48:38;5.90;;;4.95;;
21315;SDS011;10817;55.820;13.030;2023-08-20T06:51:10;7.05;;;5.95;;
21315;SDS011;10817;55.820;13.030;2023-08-20T06:53:38;9.05;;;6.50;;
21315;SDS011;10817;55.820;13.030;2023-08-20T06:56:07;11.18;;;6.80;;
21315;SDS011;10817;55.820;13.030;2023-08-20T06:58:34;10.15;;;7.07;;
21315;SDS011;10817;55.820;13.030;2023-08-20T07:01:04;10.70;;;6.63;;
21315;SDS011;10817;55.820;13.030;2023-08-20T07:03:33;9.38;;;5.90;;
21315;SDS011;10817;55.820;13.030;2023-08-20T07:06:00;9.75;;;6.53;;
21315;SDS011;10817;55.820;13.030;2023-08-20T07:08:28;12.15;;;6.80;;
21315;SDS011;10817;55.820;13.030;2023-08-20T07:10:55;14.43;;;6.13;;
21315;SDS011;10817;55.820;13.030;2023-08-20T07:13:23;11.52;;;6.40;;
21315;SDS011;10817;55.820;13.030;2023-08-20T07:15:51;11.65;;;6.45;;
21315;SDS011;10817;55.820;13.030;2023-08-20T07:18:18;13.80;;;6.40;;
21315;SDS011;10817;55.820;13.030;2023-08-20T07:20:49;14.23;;;7.05;;
21315;SDS011;10817;55.820;13.030;2023-08-20T07:23:17;18.80;;;7.47;;
21315;SDS011;10817;55.820;13.030;2023-08-20T07:25:47;10.02;;;7.07;;
21315;SDS011;10817;55.820;13.030;2023-08-20T07:28:17;17.00;;;7.82;;
21315;SDS011;10817;55.820;13.030;2023-08-20T07:31:12;16.70;;;6.93;;
21315;SDS011;10817;55.820;13.030;2023-08-20T07:33:39;13.98;;;7.25;;
21315;SDS011;10817;55.820;13.030;2023-08-20T07:36:06;19.10;;;8.02;;
21315;SDS011;10817;55.820;13.030;2023-08-20T07:38:34;13.70;;;8.45;;
21315;SDS011;10817;55.820;13.030;2023-08-20T07:41:06;13.65;;;7.78;;
21315;SDS011;10817;55.820;13.030;2023-08-20T07:43:33;11.80;;;7.38;;
21315;SDS011;10817;55.820;13.030;2023-08-20T07:46:00;10.63;;;7.28;;
21315;SDS011;10817;55.820;13.030;2023-08-20T07:48:29;12.35;;;6.82;;
21315;SDS011;10817;55.820;13.030;2023-08-20T07:50:56;12.07;;;7.10;;
21315;SDS011;10817;55.820;13.030;2023-08-20T07:53:23;9.77;;;7.60;;
21315;SDS011;10817;55.820;13.030;2023-08-20T07:55:50;10.30;;;7.22;;
21315;SDS011;10817;55.820;13.030;2023-08-20T07:58:17;15.88;;;7.88;;
21315;SDS011;10817;55.820;13.030;2023-08-20T08:00:45;11.48;;;7.72;;
21315;SDS011;10817;55.820;13.030;2023-08-20T08:03:12;12.20;;;7.53;;
21315;SDS011;10817;55.820;13.030;2023-08-20T08:05:43;14.35;;;7.88;;
21315;SDS011;10817;55.820;13.030;2023-08-20T08:08:13;15.20;;;7.38;;
21315;SDS011;10817;55.820;13.030;2023-08-20T08:10:40;9.48;;;6.93;;
21315;SDS011;10817;55.820;13.030;2023-08-20T08:13:09;10.43;;;6.75;;
21315;SDS011;10817;55.820;13.030;2023-08-20T08:15:36;9.45;;;6.55;;
21315;SDS011;10817;55.820;13.030;2023-08-20T08:18:04;10.80;;;6.55;;
21315;SDS011;10817;55.820;13.030;2023-08-20T08:20:31;11.48;;;7.78;;
21315;SDS011;10817;55.820;13.030;2023-08-20T08:23:00;10.35;;;6.55;;
21315;SDS011;10817;55.820;13.030;2023-08-20T08:25:27;11.75;;;7.05;;
21315;SDS011;10817;55.820;13.030;2023-08-20T08:27:54;12.23;;;7.20;;
21315;SDS011;10817;55.820;13.030;2023-08-20T08:30:21;10.98;;;7.25;;
21315;SDS011;10817;55.820;13.030;2023-08-20T08:32:49;11.55;;;6.63;;
21315;SDS011;10817;55.820;13.030;2023-08-20T08:35:16;9.00;;;6.28;;
21315;SDS011;10817;55.820;13.030;2023-08-20T08:37:43;10.40;;;5.85;;
21315;SDS011;10817;55.820;13.030;2023-08-20T08:40:12;9.93;;;7.13;;
21315;SDS011;10817;55.820;13.030;2023-08-20T08:42:40;9.35;;;6.82;;
21315;SDS011;10817;55.820;13.030;2023-08-20T08:45:08;11.48;;;7.15;;
21315;SDS011;10817;55.820;13.030;2023-08-20T08:47:36;9.85;;;6.78;;
21315;SDS011;10817;55.820;13.030;2023-08-20T08:50:04;9.00;;;6.32;;
21315;SDS011;10817;55.820;13.030;2023-08-20T08:52:31;7.82;;;5.60;;
21315;SDS011;10817;55.820;13.030;2023-08-20T08:54:58;9.00;;;6.60;;
21315;SDS011;10817;55.820;13.030;2023-08-20T08:57:27;9.68;;;7.00;;
21315;SDS011;10817;55.820;13.030;2023-08-20T08:59:54;9.18;;;6.50;;
21315;SDS011;10817;55.820;13.030;2023-08-20T09:02:21;12.40;;;6.70;;
21315;SDS011;10817;55.820;13.030;2023-08-20T09:04:48;12.48;;;7.30;;
21315;SDS011;10817;55.820;13.030;2023-08-20T09:07:15;12.13;;;7.93;;
21315;SDS011;10817;55.820;13.030;2023-08-20T09:09:43;13.10;;;7.22;;
21315;SDS011;10817;55.820;13.030;2023-08-20T09:12:13;11.32;;;7.45;;
21315;SDS011;10817;55.820;13.030;2023-08-20T09:14:45;13.93;;;7.05;;
21315;SDS011;10817;55.820;13.030;2023-08-20T09:17:13;10.15;;;6.82;;
21315;SDS011;10817;55.820;13.030;2023-08-20T09:19:40;12.73;;;7.68;;
21315;SDS011;10817;55.820;13.030;2023-08-20T09:22:11;13.20;;;8.10;;
21315;SDS011;10817;55.820;13.030;2023-08-20T09:24:39;14.80;;;7.78;;
21315;SDS011;10817;55.820;13.030;2023-08-20T09:27:08;11.32;;;6.63;;
21315;SDS011;10817;55.820;13.030;2023-08-20T09:29:44;13.75;;;8.93;;
21315;SDS011;10817;55.820;13.030;2023-08-20T09:32:15;14.63;;;8.50;;
21315;SDS011;10817;55.820;13.030;2023-08-20T09:34:42;16.88;;;9.70;;
21315;SDS011;10817;55.820;13.030;2023-08-20T09:37:10;17.88;;;9.63;;
21315;SDS011;10817;55.820;13.030;2023-08-20T09:39:37;19.42;;;10.60;;
21315;SDS011;10817;55.820;13.030;2023-08-20T09:42:05;23.63;;;11.48;;
21315;SDS011;10817;55.820;13.030;2023-08-20T09:44:33;19.00;;;10.88;;
21315;SDS011;10817;55.820;13.030;2023-08-20T09:47:05;16.77;;;10.23;;
21315;SDS011;10817;55.820;13.030;2023-08-20T09:49:33;22.55;;;10.63;;
21315;SDS011;10817;55.820;13.030;2023-08-20T09:52:03;26.00;;;10.70;;
21315;SDS011;10817;55.820;13.030;2023-08-20T09:54:34;19.70;;;10.23;;
21315;SDS011;10817;55.820;13.030;2023-08-20T09:57:01;22.08;;;10.30;;
21315;SDS011;10817;55.820;13.030;2023-08-20T09:59:34;19.73;;;10.65;;
21315;SDS011;10817;55.820;13.030;2023-08-20T10:02:03;22.83;;;10.63;;
21315;SDS011;10817;55.820;13.030;2023-08-20T10:04:30;32.88;;;12.73;;
21315;SDS011;10817;55.820;13.030;2023-08-20T10:06:58;26.42;;;13.70;;
21315;SDS011;10817;55.820;13.030;2023-08-20T10:09:25;28.60;;;14.40;;
21315;SDS011;10817;55.820;13.030;2023-08-20T10:11:52;39.35;;;17.35;;
21315;SDS011;10817;55.820;13.030;2023-08-20T10:14:19;41.70;;;18.83;;
21315;SDS011;10817;55.820;13.030;2023-08-20T10:16:47;44.53;;;18.50;;
21315;SDS011;10817;55.820;13.030;2023-08-20T10:19:16;49.38;;;18.85;;
21315;SDS011;10817;55.820;13.030;2023-08-20T10:21:43;47.72;;;19.38;;
21315;SDS011;10817;55.820;13.030;2023-08-20T10:24:16;39.78;;;20.17;;
21315;SDS011;10817;55.820;13.030;2023-08-20T10:26:45;50.03;;;19.73;;
21315;SDS011;10817;55.820;13.030;2023-08-20T10:31:59;53.40;;;23.35;;
21315;SDS011;10817;55.820;13.030;2023-08-20T10:34:32;46.50;;;21.58;;
21315;SDS011;10817;55.820;13.030;2023-08-20T10:37:01;46.55;;;19.13;;
21315;SDS011;10817;55.820;13.030;2023-08-20T10:39:29;38.45;;;16.88;;
21315;SDS011;10817;55.820;13.030;2023-08-20T10:42:07;30.27;;;15.50;;
21315;SDS011;10817;55.820;13.030;2023-08-20T10:47:17;20.92;;;11.05;;
21315;SDS011;10817;55.820;13.030;2023-08-20T10:49:46;21.58;;;9.75;;
21315;SDS011;10817;55.820;13.030;2023-08-20T10:52:17;20.42;;;9.25;;
21315;SDS011;10817;55.820;13.030;2023-08-20T10:54:49;19.17;;;8.63;;
21315;SDS011;10817;55.820;13.030;2023-08-20T10:57:20;15.25;;;6.85;;
21315;SDS011;10817;55.820;13.030;2023-08-20T10:59:56;14.07;;;6.78;;
21315;SDS011;10817;55.820;13.030;2023-08-20T11:02:47;14.48;;;5.65;;
21315;SDS011;10817;55.820;13.030;2023-08-20T11:12:05;5.90;;;3.95;;
21315;SDS011;10817;55.820;13.030;2023-08-20T11:20:53;11.95;;;4.03;;
21315;SDS011;10817;55.820;13.030;2023-08-20T11:23:42;5.65;;;2.80;;
21315;SDS011;10817;55.820;13.030;2023-08-20T11:26:19;3.83;;;2.78;;
21315;SDS011;10817;55.820;13.030;2023-08-20T11:29:02;7.47;;;3.00;;
21315;SDS011;10817;55.820;13.030;2023-08-20T11:31:37;7.63;;;2.95;;
21315;SDS011;10817;55.820;13.030;2023-08-20T11:34:06;6.78;;;2.70;;
21315;SDS011;10817;55.820;13.030;2023-08-20T11:36:38;6.45;;;2.67;;
21315;SDS011;10817;55.820;13.030;2023-08-20T11:39:21;5.63;;;2.63;;
21315;SDS011;10817;55.820;13.030;2023-08-20T11:41:52;6.50;;;3.10;;
21315;SDS011;10817;55.820;13.030;2023-08-20T11:44:22;5.78;;;2.50;;
21315;SDS011;10817;55.820;13.030;2023-08-20T11:46:51;9.85;;;2.75;;
21315;SDS011;10817;55.820;13.030;2023-08-20T11:49:20;5.43;;;2.58;;
21315;SDS011;10817;55.820;13.030;2023-08-20T11:51:55;6.32;;;2.70;;
21315;SDS011;10817;55.820;13.030;2023-08-20T11:54:23;6.50;;;3.08;;
21315;SDS011;10817;55.820;13.030;2023-08-20T11:56:51;7.35;;;2.90;;
21315;SDS011;10817;55.820;13.030;2023-08-20T11:59:20;8.93;;;3.00;;
21315;SDS011;10817;55.820;13.030;2023-08-20T12:01:52;7.15;;;2.67;;
21315;SDS011;10817;55.820;13.030;2023-08-20T12:04:23;6.25;;;2.67;;
21315;SDS011;10817;55.820;13.030;2023-08-20T12:07:01;8.43;;;3.03;;
21315;SDS011;10817;55.820;13.030;2023-08-20T12:09:36;8.25;;;3.03;;
21315;SDS011;10817;55.820;13.030;2023-08-20T12:12:04;4.40;;;2.63;;
21315;SDS011;10817;55.820;13.030;2023-08-20T12:14:32;8.40;;;3.53;;
21315;SDS011;10817;55.820;13.030;2023-08-20T12:17:00;8.32;;;3.03;;
21315;SDS011;10817;55.820;13.030;2023-08-20T12:19:28;4.45;;;2.30;;
21315;SDS011;10817;55.820;13.030;2023-08-20T12:21:55;6.93;;;2.75;;
21315;SDS011;10817;55.820;13.030;2023-08-20T12:24:23;9.57;;;3.13;;
21315;SDS011;10817;55.820;13.030;2023-08-20T12:26:51;7.38;;;3.13;;
21315;SDS011;10817;55.820;13.030;2023-08-20T12:29:18;8.27;;;2.92;;
21315;SDS011;10817;55.820;13.030;2023-08-20T12:31:46;4.97;;;2.13;;
21315;SDS011;10817;55.820;13.030;2023-08-20T12:34:14;8.93;;;2.58;;
21315;SDS011;10817;55.820;13.030;2023-08-20T12:36:41;7.07;;;2.10;;
21315;SDS011;10817;55.820;13.030;2023-08-20T12:39:08;6.85;;;2.53;;
21315;SDS011;10817;55.820;13.030;2023-08-20T12:41:36;5.10;;;2.17;;
21315;SDS011;10817;55.820;13.030;2023-08-20T12:44:04;7.47;;;2.33;;
21315;SDS011;10817;55.820;13.030;2023-08-20T12:46:31;6.32;;;2.22;;
21315;SDS011;10817;55.820;13.030;2023-08-20T12:48:58;3.28;;;1.92;;
21315;SDS011;10817;55.820;13.030;2023-08-20T12:51:27;6.60;;;2.40;;
21315;SDS011;10817;55.820;13.030;2023-08-20T12:53:54;7.75;;;2.22;;
21315;SDS011;10817;55.820;13.030;2023-08-20T12:56:22;4.40;;;2.00;;
21315;SDS011;10817;55.820;13.030;2023-08-20T12:58:49;8.07;;;2.15;;
21315;SDS011;10817;55.820;13.030;2023-08-20T13:01:16;6.43;;;2.03;;
21315;SDS011;10817;55.820;13.030;2023-08-20T13:03:44;5.90;;;2.00;;
21315;SDS011;10817;55.820;13.030;2023-08-20T13:06:12;8.43;;;2.00;;
21315;SDS011;10817;55.820;13.030;2023-08-20T13:08:57;3.45;;;1.80;;
21315;SDS011;10817;55.820;13.030;2023-08-20T13:11:24;6.93;;;2.10;;
21315;SDS011;10817;55.820;13.030;2023-08-20T13:13:52;6.40;;;2.15;;
21315;SDS011;10817;55.820;13.030;2023-08-20T13:16:20;6.75;;;2.00;;
21315;SDS011;10817;55.820;13.030;2023-08-20T13:18:50;6.47;;;2.00;;
21315;SDS011;10817;55.820;13.030;2023-08-20T13:21:17;6.05;;;2.00;;
21315;SDS011;10817;55.820;13.030;2023-08-20T13:23:49;6.85;;;2.15;;
21315;SDS011;10817;55.820;13.030;2023-08-20T13:26:17;7.32;;;2.03;;
21315;SDS011;10817;55.820;13.030;2023-08-20T13:28:47;6.30;;;2.28;;
21315;SDS011;10817;55.820;13.030;2023-08-20T13:31:14;6.10;;;1.83;;
21315;SDS011;10817;55.820;13.030;2023-08-20T13:33:41;5.65;;;2.00;;
21315;SDS011;10817;55.820;13.030;2023-08-20T13:36:09;3.95;;;1.58;;
21315;SDS011;10817;55.820;13.030;2023-08-20T13:38:36;6.45;;;2.03;;
21315;SDS011;10817;55.820;13.030;2023-08-20T13:41:03;5.70;;;1.77;;
21315;SDS011;10817;55.820;13.030;2023-08-20T13:43:32;4.75;;;1.85;;
21315;SDS011;10817;55.820;13.030;2023-08-20T13:45:59;5.97;;;1.85;;
21315;SDS011;10817;55.820;13.030;2023-08-20T13:48:29;6.50;;;2.30;;
21315;SDS011;10817;55.820;13.030;2023-08-20T13:50:56;5.68;;;1.92;;
21315;SDS011;10817;55.820;13.030;2023-08-20T13:53:23;6.00;;;1.80;;
21315;SDS011;10817;55.820;13.030;2023-08-20T13:55:50;8.80;;;2.03;;
21315;SDS011;10817;55.820;13.030;2023-08-20T13:58:18;8.40;;;2.00;;
21315;SDS011;10817;55.820;13.030;2023-08-20T14:00:47;4.85;;;2.13;;
21315;SDS011;10817;55.820;13.030;2023-08-20T14:03:16;6.45;;;1.80;;
21315;SDS011;10817;55.820;13.030;2023-08-20T14:05:43;5.50;;;1.75;;
21315;SDS011;10817;55.820;13.030;2023-08-20T14:08:11;5.97;;;2.00;;
21315;SDS011;10817;55.820;13.030;2023-08-20T14:10:38;5.30;;;1.80;;
21315;SDS011;10817;55.820;13.030;2023-08-20T14:13:08;7.28;;;1.98;;
21315;SDS011;10817;55.820;13.030;2023-08-20T14:15:35;6.32;;;1.85;;
21315;SDS011;10817;55.820;13.030;2023-08-20T14:18:04;6.88;;;2.20;;
21315;SDS011;10817;55.820;13.030;2023-08-20T14:20:32;7.70;;;2.38;;
21315;SDS011;10817;55.820;13.030;2023-08-20T14:23:05;7.10;;;1.98;;
21315;SDS011;10817;55.820;13.030;2023-08-20T14:25:32;9.75;;;1.60;;
21315;SDS011;10817;55.820;13.030;2023-08-20T14:28:07;4.75;;;1.60;;
21315;SDS011;10817;55.820;13.030;2023-08-20T14:30:35;4.95;;;1.77;;
21315;SDS011;10817;55.820;13.030;2023-08-20T14:33:05;4.35;;;1.50;;
21315;SDS011;10817;55.820;13.030;2023-08-20T14:35:37;5.70;;;1.70;;
21315;SDS011;10817;55.820;13.030;2023-08-20T14:38:04;3.65;;;1.50;;
21315;SDS011;10817;55.820;13.030;2023-08-20T14:40:36;4.38;;;1.60;;
21315;SDS011;10817;55.820;13.030;2023-08-20T14:43:04;5.68;;;1.63;;
21315;SDS011;10817;55.820;13.030;2023-08-20T14:45:32;4.63;;;1.80;;
21315;SDS011;10817;55.820;13.030;2023-08-20T14:48:02;4.88;;;1.45;;
21315;SDS011;10817;55.820;13.030;2023-08-20T14:50:31;5.63;;;1.70;;
21315;SDS011;10817;55.820;13.030;2023-08-20T14:52:58;7.82;;;1.63;;
21315;SDS011;10817;55.820;13.030;2023-08-20T14:55:30;4.57;;;1.60;;